Time;durP1;ratioP1;P1;durP2;ratioP2;P2;SDS_P1;SDS_P2;PMS_P1;PMS_P2;Temp;Humidity;BMP_temperature;BMP_pressure;BME280_temperature;BME280_humidity;BME280_pressure;Samples;Min_cycle;Max_cycle;Signal;HPM_P1;HPM_P2
2023/05/15 00:01:31;;;;;;;2.70;2.60;;;;;;;9.06;100.00;96461.09;5075330;28;20217;-70
2023/05/15 00:03:58;;;;;;;2.70;2.60;;;;;;;8.88;100.00;96435.13;5049096;27;20214;-70
2023/05/15 00:06:27;;;;;;;3.10;2.80;;;;;;;9.01;100.00;96459.00;5077160;27;20505;-70
2023/05/15 00:08:55;;;;;;;3.10;2.90;;;;;;;9.05;100.00;96464.75;5071596;28;20798;-71
2023/05/15 00:11:23;;;;;;;2.50;2.30;;;;;;;9.02;100.00;96459.84;5073603;27;20321;-71
2023/05/15 00:13:51;;;;;;;2.63;2.53;;;;;;;9.01;100.00;96463.50;5024471;27;20214;-71
2023/05/15 00:16:18;;;;;;;2.80;2.70;;;;;;;8.98;100.00;96464.69;5073275;27;20645;-72
2023/05/15 00:18:46;;;;;;;3.27;3.17;;;;;;;8.98;100.00;96467.31;5054296;27;20844;-68
2023/05/15 00:21:14;;;;;;;2.87;2.77;;;;;;;9.05;100.00;96464.75;5074202;27;20322;-70
2023/05/15 00:23:43;;;;;;;2.83;2.73;;;;;;;9.02;100.00;96465.13;5075148;28;20202;-69
2023/05/15 00:26:12;;;;;;;2.97;2.77;;;;;;;9.07;100.00;96458.25;5071136;28;20700;-69
2023/05/15 00:28:40;;;;;;;3.13;2.93;;;;;;;9.03;100.00;96461.47;5023389;27;20212;-70
2023/05/15 00:31:08;;;;;;;2.90;2.80;;;;;;;9.02;100.00;96459.84;5069594;27;20329;-70
2023/05/15 00:33:36;;;;;;;2.70;2.60;;;;;;;8.88;100.00;96441.22;5053326;27;20872;-70
2023/05/15 00:36:03;;;;;;;3.33;3.23;;;;;;;8.90;100.00;96433.97;5068065;27;20206;-70
2023/05/15 00:38:32;;;;;;;2.83;2.73;;;;;;;9.11;100.00;96456.03;5071944;27;20218;-72
2023/05/15 00:41:01;;;;;;;2.97;2.87;;;;;;;9.03;100.00;96462.28;5047360;27;20222;-69
2023/05/15 00:43:29;;;;;;;3.90;2.87;;;;;;;8.90;100.00;96436.59;5071933;28;20679;-70
2023/05/15 00:45:57;;;;;;;4.03;2.97;;;;;;;8.88;100.00;96430.66;5026063;27;20662;-69
2023/05/15 00:48:25;;;;;;;3.07;2.97;;;;;;;9.09;100.00;96452.78;5070090;27;20405;-69
2023/05/15 00:50:53;;;;;;;2.67;2.57;;;;;;;9.05;100.00;96443.59;5053689;27;20683;-71
2023/05/15 00:53:21;;;;;;;3.07;2.77;;;;;;;8.98;100.00;96441.72;5074025;27;20206;-72
2023/05/15 00:55:49;;;;;;;2.70;2.60;;;;;;;8.94;100.00;96443.13;5075112;28;20214;-70
2023/05/15 00:58:21;;;;;;;2.70;2.60;;;;;;;9.04;100.00;96452.53;5073323;27;20462;-71
2023/05/15 01:00:50;;;;;;;3.17;2.97;;;;;;;9.05;100.00;96448.88;5021259;27;20233;-71
2023/05/15 01:03:17;;;;;;;5.07;4.67;;;;;;;9.02;100.00;96444.00;5072772;27;20692;-71
2023/05/15 01:05:45;;;;;;;3.57;3.37;;;;;;;8.97;100.00;96448.03;5057097;28;20242;-71
2023/05/15 01:08:16;;;;;;;2.67;2.57;;;;;;;8.92;100.00;96437.22;5067261;27;20822;-71
2023/05/15 01:10:44;;;;;;;2.97;2.87;;;;;;;8.97;100.00;96452.47;5076820;27;20229;-71
2023/05/15 01:13:13;;;;;;;2.77;2.67;;;;;;;8.96;100.00;96445.56;5073024;27;20405;-71
2023/05/15 01:15:43;;;;;;;2.60;2.50;;;;;;;8.95;100.00;96442.13;5024161;27;20221;-70
2023/05/15 01:18:11;;;;;;;3.00;2.90;;;;;;;8.96;100.00;96451.69;5065834;27;20315;-69
2023/05/15 01:20:50;;;;;;;3.30;2.97;;;;;;;8.92;100.00;96453.06;5052579;28;20775;-71
2023/05/15 01:23:23;;;;;;;3.10;3.00;;;;;;;8.92;100.00;96447.78;5068641;27;20206;-71
2023/05/15 01:26:36;;;;;;;4.00;3.60;;;;;;;8.95;100.00;96450.03;5074494;28;20197;-69
2023/05/15 01:29:09;;;;;;;3.60;3.40;;;;;;;8.94;100.00;96443.13;4989850;28;20204;-71
2023/05/15 01:31:37;;;;;;;2.83;2.73;;;;;;;9.01;100.00;96434.44;5004238;28;20272;-71
2023/05/15 01:34:08;;;;;;;3.90;3.50;;;;;;;9.01;100.00;96434.44;5071162;27;20284;-70
2023/05/15 01:36:38;;;;;;;3.60;3.40;;;;;;;9.01;100.00;96434.44;5054525;27;20197;-71
2023/05/15 01:39:07;;;;;;;3.50;3.30;;;;;;;9.06;100.00;96435.47;5068732;28;20228;-72
2023/05/15 01:41:38;;;;;;;3.40;3.20;;;;;;;8.93;100.00;96412.44;5072152;27;20680;-71
2023/05/15 01:44:08;;;;;;;3.33;3.13;;;;;;;9.02;100.00;96436.06;5075945;27;20197;-70
2023/05/15 01:46:39;;;;;;;2.73;2.60;;;;;;;9.06;100.00;96439.94;5022274;27;20209;-69
2023/05/15 01:49:08;;;;;;;3.23;3.03;;;;;;;9.06;100.00;96438.09;5067482;28;20938;-70
2023/05/15 01:51:37;;;;;;;2.77;2.67;;;;;;;8.98;100.00;96433.81;5039476;27;21134;-70
2023/05/15 01:54:06;;;;;;;3.40;3.20;;;;;;;8.95;100.00;96439.47;5062823;28;20310;-69
2023/05/15 01:56:35;;;;;;;2.90;2.80;;;;;;;9.04;100.00;96436.69;5070841;27;20232;-69
2023/05/15 01:59:04;;;;;;;3.47;3.23;;;;;;;8.98;100.00;96439.09;5045919;27;20763;-70
2023/05/15 02:01:34;;;;;;;3.10;2.90;;;;;;;9.01;100.00;96434.44;5015641;27;20217;-71
2023/05/15 02:04:03;;;;;;;3.07;2.87;;;;;;;8.95;100.00;96428.91;5067162;27;20735;-70
2023/05/15 02:06:31;;;;;;;3.30;3.20;;;;;;;8.95;100.00;96430.72;5054687;28;20213;-70
2023/05/15 02:09:01;;;;;;;3.33;3.13;;;;;;;8.82;100.00;96412.94;5066816;28;20205;-70
2023/05/15 02:11:28;;;;;;;3.60;3.40;;;;;;;8.94;100.00;96435.19;5072349;27;20232;-69
2023/05/15 02:13:57;;;;;;;3.47;3.27;;;;;;;8.91;100.00;96432.13;5072997;28;20198;-71
2023/05/15 02:16:24;;;;;;;3.27;3.00;;;;;;;8.96;100.00;96437.63;5019336;27;20394;-71
2023/05/15 02:18:54;;;;;;;3.83;3.53;;;;;;;8.96;100.00;96446.41;5070844;27;20511;-69
2023/05/15 02:21:21;;;;;;;2.83;2.73;;;;;;;8.96;100.00;96438.47;5045113;27;20829;-69
2023/05/15 02:23:49;;;;;;;3.17;3.07;;;;;;;8.98;100.00;96439.09;5074007;27;20204;-69
2023/05/15 02:26:26;;;;;;;3.47;3.27;;;;;;;8.86;100.00;96422.09;5065155;27;20438;-70
2023/05/15 02:29:00;;;;;;;2.93;2.83;;;;;;;9.02;100.00;96438.69;5071671;27;20200;-70
2023/05/15 02:31:32;;;;;;;3.13;2.93;;;;;;;9.01;100.00;96442.34;5021637;27;20222;-69
2023/05/15 02:34:09;;;;;;;3.30;3.10;;;;;;;8.85;100.00;96414.41;5070861;28;20533;-70
2023/05/15 02:36:40;;;;;;;3.50;3.30;;;;;;;8.97;100.00;96426.88;5076638;27;20204;-69
2023/05/15 02:39:09;;;;;;;3.07;2.87;;;;;;;8.99;100.00;96426.69;5046581;28;20513;-70
2023/05/15 02:41:37;;;;;;;3.20;3.00;;;;;;;9.00;100.00;96422.22;5076709;28;20225;-71
2023/05/15 02:44:05;;;;;;;2.93;2.83;;;;;;;8.97;100.00;96420.78;5071612;27;20209;-71
2023/05/15 02:46:33;;;;;;;2.73;2.63;;;;;;;8.91;100.00;96422.38;5071992;28;20249;-70
2023/05/15 02:49:02;;;;;;;3.00;2.80;;;;;;;8.94;100.00;96422.00;5017831;27;20970;-70
2023/05/15 02:51:30;;;;;;;2.70;2.60;;;;;;;8.93;100.00;96414.25;5073050;28;20668;-72
2023/05/15 02:54:00;;;;;;;2.60;2.50;;;;;;;8.91;100.00;96418.91;5048971;28;20201;-72
2023/05/15 02:56:27;;;;;;;2.60;2.50;;;;;;;8.90;100.00;96420.75;5067274;28;20198;-70
2023/05/15 02:58:55;;;;;;;2.63;2.53;;;;;;;8.94;100.00;96415.88;5066940;28;20233;-69
2023/05/15 03:01:23;;;;;;;2.97;2.87;;;;;;;8.92;100.00;96417.91;5066671;28;20229;-72
2023/05/15 03:03:51;;;;;;;3.10;3.00;;;;;;;8.81;100.00;96412.13;5018083;28;20213;-72
2023/05/15 03:06:20;;;;;;;2.90;2.80;;;;;;;8.79;100.00;96413.31;5070240;28;20598;-71
2023/05/15 03:08:48;;;;;;;2.87;2.77;;;;;;;8.73;100.00;96422.03;5050119;28;20201;-70
2023/05/15 03:11:18;;;;;;;2.60;2.50;;;;;;;8.68;100.00;96423.41;5047733;28;20315;-70
2023/05/15 03:13:45;;;;;;;3.17;2.97;;;;;;;8.69;100.00;96418.94;5070870;28;20255;-71
2023/05/15 03:16:13;;;;;;;2.90;2.80;;;;;;;8.77;100.00;96413.53;5068647;28;20442;-70
2023/05/15 03:18:41;;;;;;;3.20;3.00;;;;;;;8.77;100.00;96404.78;4993915;28;20219;-67
2023/05/15 03:21:08;;;;;;;2.90;2.70;;;;;;;8.82;100.00;96416.41;5065906;28;20244;-69
2023/05/15 03:23:37;;;;;;;3.00;2.80;;;;;;;8.83;100.00;96411.94;5070927;28;20944;-69
2023/05/15 03:26:05;;;;;;;3.07;2.87;;;;;;;8.85;100.00;96406.47;5044357;28;20216;-69
2023/05/15 03:28:32;;;;;;;3.03;2.93;;;;;;;8.87;100.00;96407.88;5069132;28;20240;-69
2023/05/15 03:31:00;;;;;;;3.27;3.10;;;;;;;8.88;100.00;96400.81;5068572;28;20218;-69
2023/05/15 03:33:28;;;;;;;3.93;3.60;;;;;;;8.96;100.00;96408.56;5069733;28;20197;-68
2023/05/15 03:35:55;;;;;;;3.63;3.43;;;;;;;9.01;100.00;96408.81;5018761;28;20275;-69
2023/05/15 03:38:23;;;;;;;3.70;3.50;;;;;;;8.93;100.00;96404.50;5068533;28;20221;-70
2023/05/15 03:40:52;;;;;;;4.27;4.03;;;;;;;8.87;100.00;96407.09;5046909;28;20225;-68
2023/05/15 03:43:19;;;;;;;4.27;4.00;;;;;;;8.88;100.00;96400.81;5068479;28;20592;-69
2023/05/15 03:45:47;;;;;;;4.50;4.20;;;;;;;8.72;100.00;96383.41;5044647;28;20703;-69
2023/05/15 03:48:14;;;;;;;4.40;4.10;;;;;;;8.94;100.00;96403.50;5068076;28;20782;-70
2023/05/15 03:50:44;;;;;;;4.10;3.90;;;;;;;8.83;100.00;96398.72;5017281;28;20253;-69
2023/05/15 03:53:11;;;;;;;4.20;3.80;;;;;;;8.72;100.00;96386.06;5068336;28;20547;-68
2023/05/15 03:55:39;;;;;;;3.90;3.70;;;;;;;8.78;100.00;96398.47;5049713;28;20210;-68
2023/05/15 03:58:08;;;;;;;4.30;4.00;;;;;;;8.90;100.00;96401.41;5063009;28;20588;-71
2023/05/15 04:00:35;;;;;;;4.00;3.80;;;;;;;8.92;100.00;96402.03;5071509;28;20632;-71
2023/05/15 04:03:03;;;;;;;3.63;3.53;;;;;;;8.94;100.00;96405.31;5042818;28;20656;-71
2023/05/15 04:05:31;;;;;;;3.50;3.30;;;;;;;8.88;100.00;96411.38;5075572;28;20749;-71
2023/05/15 04:07:58;;;;;;;4.07;3.87;;;;;;;8.92;100.00;96400.22;5019053;27;20206;-71
2023/05/15 04:10:26;;;;;;;3.90;3.70;;;;;;;8.94;100.00;96407.94;5074291;27;20237;-70
2023/05/15 04:12:53;;;;;;;3.90;3.70;;;;;;;9.00;100.00;96401.09;5053168;27;20279;-71
2023/05/15 04:15:24;;;;;;;4.60;4.30;;;;;;;8.92;100.00;96408.16;5072343;27;20201;-71
2023/05/15 04:17:53;;;;;;;4.20;4.00;;;;;;;8.91;100.00;96403.88;5070653;28;20307;-70
2023/05/15 04:20:22;;;;;;;4.67;4.37;;;;;;;9.06;100.00;96402.94;5073011;27;20225;-70
2023/05/15 04:22:50;;;;;;;4.70;4.40;;;;;;;8.86;100.00;96385.13;5006354;27;20675;-70
2023/05/15 04:25:19;;;;;;;5.03;4.63;;;;;;;8.96;100.00;96406.75;5070123;27;20656;-68
2023/05/15 04:27:48;;;;;;;4.57;4.27;;;;;;;9.09;100.00;96399.91;5052199;27;20252;-69
2023/05/15 04:30:15;;;;;;;4.60;4.30;;;;;;;8.93;100.00;96399.22;5073158;28;20421;-69
2023/05/15 04:32:45;;;;;;;4.90;4.50;;;;;;;8.98;100.00;96396.81;5071757;28;21100;-69
2023/05/15 04:35:14;;;;;;;5.33;5.03;;;;;;;9.02;100.00;96393.78;5075731;27;20201;-69
2023/05/15 04:37:44;;;;;;;4.73;4.43;;;;;;;8.95;100.00;96401.66;5029662;27;20254;-69
2023/05/15 04:40:13;;;;;;;4.87;4.47;;;;;;;8.89;100.00;96402.44;5072293;27;20346;-70
2023/05/15 04:42:41;;;;;;;5.53;5.03;;;;;;;8.94;100.00;96385.00;5055702;27;20275;-69
2023/05/15 04:45:09;;;;;;;5.40;5.07;;;;;;;9.14;100.00;96397.50;5071994;28;20749;-69
2023/05/15 04:47:37;;;;;;;4.77;4.47;;;;;;;9.04;100.00;96375.91;5076203;28;20744;-71
2023/05/15 04:50:07;;;;;;;5.17;4.80;;;;;;;9.25;100.00;96401.44;5071007;27;20602;-70
2023/05/15 04:52:35;;;;;;;5.33;4.37;;;;;;;9.37;100.00;96402.50;5069845;27;20241;-70
2023/05/15 04:55:03;;;;;;;5.20;4.90;;;;;;;9.34;100.00;96399.47;5020297;27;20679;-71
2023/05/15 04:57:31;;;;;;;4.47;4.17;;;;;;;9.26;100.00;96395.16;5074441;28;20202;-70
2023/05/15 04:59:58;;;;;;;4.50;4.30;;;;;;;9.22;100.00;96399.19;5053443;27;20237;-70
2023/05/15 05:02:26;;;;;;;4.70;4.40;;;;;;;9.34;100.00;96405.56;5073116;28;20954;-69
2023/05/15 05:04:53;;;;;;;5.67;5.23;;;;;;;9.43;100.00;96403.56;5071916;28;20802;-69
2023/05/15 05:07:22;;;;;;;5.07;4.77;;;;;;;9.68;100.00;96400.44;5071714;27;20202;-69
2023/05/15 05:09:50;;;;;;;4.80;4.50;;;;;;;9.93;100.00;96406.00;5019635;28;20226;-68
2023/05/15 05:12:17;;;;;;;4.90;4.60;;;;;;;10.07;100.00;96403.41;5048365;27;20206;-69
2023/05/15 05:14:45;;;;;;;5.00;4.63;;;;;;;9.92;100.00;96400.91;5044785;28;20214;-70
2023/05/15 05:17:13;;;;;;;5.10;4.70;;;;;;;9.77;100.00;96396.59;5027339;27;20314;-68
2023/05/15 05:19:41;;;;;;;4.50;4.20;;;;;;;9.75;100.00;96406.56;5074316;27;20233;-68
2023/05/15 05:22:08;;;;;;;4.77;4.47;;;;;;;9.69;100.00;96404.72;5035984;27;20307;-66
2023/05/15 05:24:37;;;;;;;4.80;4.50;;;;;;;9.68;100.00;96409.16;5015523;28;20228;-65
2023/05/15 05:27:05;;;;;;;5.00;4.70;;;;;;;9.82;100.00;96404.75;5071666;27;20216;-65
2023/05/15 05:29:33;;;;;;;5.77;5.37;;;;;;;9.77;100.00;96406.34;5035569;27;20268;-66
2023/05/15 05:32:01;;;;;;;5.30;5.00;;;;;;;9.66;100.00;96405.91;5055510;27;20206;-65
2023/05/15 05:34:29;;;;;;;8.40;7.80;;;;;;;9.88;100.00;96404.97;5070662;28;20218;-66
2023/05/15 05:36:56;;;;;;;6.13;5.73;;;;;;;9.91;100.00;96405.41;5074601;27;20206;-67
2023/05/15 05:39:24;;;;;;;5.23;4.93;;;;;;;10.11;100.00;96404.63;5018479;27;20260;-66
2023/05/15 05:41:53;;;;;;;5.40;5.10;;;;;;;10.03;100.00;96413.56;5073418;27;20431;-67
2023/05/15 05:44:20;;;;;;;5.20;4.90;;;;;;;10.26;100.00;96404.47;5049447;27;20965;-67
2023/05/15 05:46:49;;;;;;;4.97;4.70;;;;;;;10.28;100.00;96403.25;5050655;28;20696;-65
2023/05/15 05:49:16;;;;;;;4.90;4.60;;;;;;;10.32;100.00;96408.13;5054031;27;20546;-67
2023/05/15 05:51:45;;;;;;;4.77;4.53;;;;;;;10.13;100.00;96408.72;5073754;27;20236;-65
2023/05/15 05:54:13;;;;;;;5.57;5.17;;;;;;;10.34;100.00;96404.25;5014606;28;20808;-68
2023/05/15 05:56:41;;;;;;;6.10;5.70;;;;;;;10.17;100.00;96418.91;5073972;28;20206;-66
2023/05/15 05:59:10;;;;;;;6.63;6.13;;;;;;;10.17;100.00;96413.59;5048524;27;20205;-68
2023/05/15 06:01:38;;;;;;;6.20;5.80;;;;;;;10.27;100.00;96404.28;5054569;27;20806;-66
2023/05/15 06:04:05;;;;;;;6.40;5.80;;;;;;;10.28;100.00;96407.72;5071684;27;20205;-65
2023/05/15 06:06:34;;;;;;;5.53;5.13;;;;;;;10.33;100.00;96378.00;5072896;28;20210;-66
2023/05/15 06:09:02;;;;;;;6.60;5.57;;;;;;;10.39;100.00;96370.03;5033017;27;20674;-65
2023/05/15 06:11:30;;;;;;;6.13;5.73;;;;;;;10.84;100.00;96403.09;5068452;27;20230;-67
2023/05/15 06:13:58;;;;;;;6.53;5.70;;;;;;;10.73;100.00;96401.88;5062681;28;20198;-66
2023/05/15 06:16:27;;;;;;;10.40;9.30;;;;;;;10.79;100.00;96397.59;5042202;27;20206;-66
2023/05/15 06:18:55;;;;;;;6.40;6.00;;;;;;;10.88;100.00;96396.38;5070944;28;20205;-65
2023/05/15 06:21:22;;;;;;;5.13;4.83;;;;;;;11.03;100.00;96390.03;5071466;27;20353;-66
2023/05/15 06:23:50;;;;;;;5.50;5.17;;;;;;;11.06;100.00;96395.75;5067980;27;20209;-66
2023/05/15 06:26:18;;;;;;;5.60;5.20;;;;;;;11.33;100.00;96397.53;5026822;28;20259;-65
2023/05/15 06:28:46;;;;;;;5.27;4.87;;;;;;;11.70;100.00;96398.59;5072359;28;20206;-66
2023/05/15 06:31:13;;;;;;;5.47;5.03;;;;;;;12.09;100.00;96382.75;5048877;27;20436;-66
2023/05/15 06:33:42;;;;;;;5.97;5.67;;;;;;;12.11;100.00;96396.63;5054561;27;20294;-66
2023/05/15 06:36:10;;;;;;;6.30;5.63;;;;;;;12.02;100.00;96390.75;5054196;27;20201;-66
2023/05/15 06:38:38;;;;;;;5.43;5.13;;;;;;;12.07;100.00;96391.94;5069429;27;20202;-66
2023/05/15 06:41:06;;;;;;;5.17;4.77;;;;;;;12.29;100.00;96385.28;5015891;27;20607;-66
2023/05/15 06:43:33;;;;;;;5.00;4.70;;;;;;;12.04;100.00;96392.38;5069462;28;20220;-66
2023/05/15 06:46:02;;;;;;;5.17;4.87;;;;;;;11.75;100.00;96370.66;5049750;28;20293;-66
2023/05/15 06:48:31;;;;;;;5.03;4.73;;;;;;;12.10;100.00;96402.13;5049660;28;20601;-66
2023/05/15 06:51:00;;;;;;;5.30;5.00;;;;;;;11.89;100.00;96406.72;5052296;28;20225;-65
2023/05/15 06:53:29;;;;;;;5.30;5.00;;;;;;;12.09;100.00;96406.63;5067523;28;20209;-66
2023/05/15 06:55:57;;;;;;;5.87;5.37;;;;;;;12.12;100.00;96371.69;5048836;28;20214;-65
2023/05/15 06:58:25;;;;;;;7.43;6.83;;;;;;;12.19;100.00;96392.91;5048273;28;20569;-66
2023/05/15 07:00:52;;;;;;;7.73;6.63;;;;;;;12.27;100.00;96402.44;5048447;28;20598;-66
2023/05/15 07:03:22;;;;;;;5.50;5.20;;;;;;;12.56;100.00;96392.25;5047996;28;21268;-66
2023/05/15 07:05:51;;;;;;;6.27;5.77;;;;;;;12.71;100.00;96392.75;5074454;28;20755;-68
2023/05/15 07:08:19;;;;;;;6.23;5.67;;;;;;;12.90;100.00;96398.09;5068468;28;20650;-65
2023/05/15 07:10:48;;;;;;;5.00;4.70;;;;;;;13.11;100.00;96388.09;5073223;28;20217;-66
2023/05/15 07:13:17;;;;;;;5.43;5.13;;;;;;;13.75;100.00;96387.81;5026949;28;20971;-67
2023/05/15 07:15:45;;;;;;;4.87;4.67;;;;;;;13.42;100.00;96392.50;5072842;28;20220;-65
2023/05/15 07:18:12;;;;;;;4.87;4.47;;;;;;;13.02;100.00;96395.56;5022634;28;20205;-66
2023/05/15 07:20:40;;;;;;;5.03;4.63;;;;;;;13.23;100.00;96399.63;5074252;28;20761;-65
2023/05/15 07:23:07;;;;;;;4.37;4.17;;;;;;;13.36;100.00;96398.69;5069293;28;20205;-66
2023/05/15 07:25:37;;;;;;;4.63;4.33;;;;;;;13.68;100.00;96398.56;5073948;28;20211;-65
2023/05/15 07:28:04;;;;;;;5.17;4.87;;;;;;;13.43;100.00;96391.47;5019609;28;20756;-65
2023/05/15 07:30:32;;;;;;;5.27;4.87;;;;;;;13.42;100.00;96400.50;5072498;28;20226;-67
2023/05/15 07:33:00;;;;;;;4.10;3.90;;;;;;;13.46;100.00;96399.00;5046867;28;20202;-65
2023/05/15 07:35:27;;;;;;;6.67;6.07;;;;;;;13.41;100.00;96392.69;5049056;28;20205;-66
2023/05/15 07:37:55;;;;;;;9.03;8.23;;;;;;;13.19;100.00;96390.47;5071313;28;20210;-64
2023/05/15 07:40:22;;;;;;;4.90;4.60;;;;;;;12.93;100.00;96384.38;5071876;27;21502;-66
2023/05/15 07:42:51;;;;;;;4.60;4.30;;;;;;;12.55;100.00;96369.34;5027593;27;20305;-65
2023/05/15 07:45:19;;;;;;;4.13;3.90;;;;;;;12.52;100.00;96388.38;5078239;27;20615;-65
2023/05/15 07:47:47;;;;;;;4.73;4.43;;;;;;;12.69;100.00;96386.00;5053511;27;20235;-65
2023/05/15 07:50:15;;;;;;;4.83;4.53;;;;;;;12.76;100.00;96385.97;5049226;27;20538;-65
2023/05/15 07:52:43;;;;;;;3.90;3.70;;;;;;;12.91;100.00;96385.63;5075959;27;20645;-65
2023/05/15 07:55:11;;;;;;;3.93;3.73;;;;;;;13.07;100.00;96384.22;5074297;27;20465;-67
2023/05/15 07:57:39;;;;;;;4.50;4.30;;;;;;;13.27;100.00;96376.88;5025110;27;20344;-66
2023/05/15 08:00:11;;;;;;;5.73;5.37;;;;;;;13.60;100.00;96381.06;5073746;28;20351;-65
2023/05/15 08:02:39;;;;;;;5.67;5.27;;;;;;;13.54;100.00;96376.63;5072619;27;20222;-66
2023/05/15 08:05:07;;;;;;;4.10;3.90;;;;;;;13.64;100.00;96372.63;5053385;27;20212;-65
2023/05/15 08:07:35;;;;;;;4.53;3.50;;;;;;;13.34;100.00;96386.63;5052936;27;20428;-65
2023/05/15 08:10:04;;;;;;;3.73;3.57;;;;;;;13.60;100.00;96382.88;5074667;27;21150;-65
2023/05/15 08:12:33;;;;;;;4.70;4.40;;;;;;;13.78;100.00;96371.41;5076980;27;20659;-66
2023/05/15 08:15:00;;;;;;;5.43;5.13;;;;;;;13.37;100.00;96380.88;5025924;27;20218;-65
2023/05/15 08:17:29;;;;;;;5.83;5.40;;;;;;;13.82;100.00;96379.78;5072770;28;20407;-65
2023/05/15 08:19:57;;;;;;;5.27;4.80;;;;;;;13.93;100.00;96376.34;5056209;27;20233;-65
2023/05/15 08:22:24;;;;;;;4.50;4.30;;;;;;;13.59;100.00;96383.91;5053802;27;20272;-65
2023/05/15 08:24:52;;;;;;;4.70;4.37;;;;;;;14.25;100.00;96384.09;5074035;28;20400;-65
2023/05/15 08:27:19;;;;;;;4.67;4.37;;;;;;;14.59;100.00;96373.75;5076224;28;21152;-65
2023/05/15 08:29:47;;;;;;;4.67;4.47;;;;;;;15.12;100.00;96373.91;5026127;27;20213;-67
2023/05/15 08:32:14;;;;;;;5.33;4.77;;;;;;;15.80;100.00;96372.63;5073664;27;20202;-65
2023/05/15 08:34:43;;;;;;;6.10;5.43;;;;;;;15.65;100.00;96373.16;5074061;28;20229;-65
2023/05/15 08:37:11;;;;;;;4.97;4.67;;;;;;;15.61;100.00;96373.63;5031661;27;20506;-64
2023/05/15 08:39:39;;;;;;;4.70;4.50;;;;;;;15.56;100.00;96372.72;5075012;28;20556;-65
2023/05/15 08:42:09;;;;;;;4.57;4.27;;;;;;;15.69;100.00;96363.59;5072922;27;20861;-64
2023/05/15 08:44:38;;;;;;;4.63;4.37;;;;;;;15.99;100.00;96365.28;5077331;28;20697;-64
2023/05/15 08:47:06;;;;;;;4.70;4.50;;;;;;;16.50;100.00;96365.38;5020394;27;20210;-64
2023/05/15 08:49:39;;;;;;;4.20;4.00;;;;;;;16.38;100.00;96364.66;5075640;27;20262;-67
2023/05/15 08:52:10;;;;;;;5.20;4.70;;;;;;;16.89;100.00;96367.34;5049094;28;20940;-65
2023/05/15 08:54:39;;;;;;;5.57;5.03;;;;;;;17.62;100.00;96359.25;5075714;28;20206;-68
2023/05/15 08:57:07;;;;;;;4.63;4.33;;;;;;;17.34;100.00;96363.72;5072185;27;20691;-66
2023/05/15 08:59:34;;;;;;;5.00;4.70;;;;;;;17.42;100.00;96359.00;5075952;28;20198;-67
2023/05/15 09:02:02;;;;;;;5.23;4.80;;;;;;;17.71;100.00;96348.09;5019768;27;20225;-67
2023/05/15 09:04:29;;;;;;;4.17;3.97;;;;;;;17.17;100.00;96358.41;5077221;28;20748;-67
2023/05/15 09:06:59;;;;;;;4.70;4.40;;;;;;;16.74;100.00;96349.19;5065840;27;20217;-66
2023/05/15 09:09:28;;;;;;;4.87;4.47;;;;;;;17.01;100.00;96335.97;5068069;27;20744;-65
2023/05/15 09:11:55;;;;;;;5.00;4.70;;;;;;;17.16;100.00;96339.91;5074933;27;20210;-65
2023/05/15 09:14:23;;;;;;;4.87;4.57;;;;;;;17.13;100.00;96351.09;5073951;27;20401;-65
2023/05/15 09:16:52;;;;;;;4.70;4.40;;;;;;;16.88;100.00;96350.47;5023958;28;20723;-66
2023/05/15 09:19:21;;;;;;;4.57;4.27;;;;;;;16.87;100.00;96332.00;5071017;28;20197;-65
2023/05/15 09:21:49;;;;;;;4.50;4.23;;;;;;;16.54;100.00;96353.13;5079005;28;20312;-66
2023/05/15 09:24:18;;;;;;;5.33;4.93;;;;;;;16.30;100.00;96349.81;5051627;27;20213;-66
2023/05/15 09:27:01;;;;;;;7.90;7.10;;;;;;;15.94;100.00;96354.50;5079297;27;20206;-65
2023/05/15 09:29:29;;;;;;;5.10;4.80;;;;;;;15.53;100.00;96346.47;5070836;27;20672;-68
2023/05/15 09:32:02;;;;;;;4.80;4.50;;;;;;;15.29;100.00;96352.66;5049975;28;20216;-64
2023/05/15 09:34:31;;;;;;;5.80;5.40;;;;;;;15.07;100.00;96352.47;5069692;27;20379;-65
2023/05/15 09:37:01;;;;;;;5.17;4.80;;;;;;;15.10;100.00;96351.19;5074550;27;20194;-68
2023/05/15 09:39:29;;;;;;;4.77;4.47;;;;;;;15.42;100.00;96353.47;5051933;27;20215;-66
2023/05/15 09:42:07;;;;;;;4.50;4.20;;;;;;;15.17;100.00;96354.56;5075244;27;20217;-66
2023/05/15 09:44:35;;;;;;;4.33;4.10;;;;;;;14.80;100.00;96346.78;5073928;28;20640;-66
2023/05/15 09:47:05;;;;;;;4.70;4.30;;;;;;;14.52;100.00;96356.22;5069952;27;20484;-66
2023/05/15 09:49:33;;;;;;;5.13;4.73;;;;;;;14.37;100.00;96354.00;5020538;28;20213;-66
2023/05/15 09:52:01;;;;;;;4.10;3.90;;;;;;;14.78;100.00;96356.88;5074624;28;20198;-66
2023/05/15 09:54:30;;;;;;;4.83;4.53;;;;;;;14.99;100.00;96350.97;5050183;28;20545;-66
2023/05/15 09:57:08;;;;;;;4.43;4.03;;;;;;;15.39;100.00;96348.63;5075233;27;20197;-66
2023/05/15 09:59:38;;;;;;;3.83;3.63;;;;;;;15.48;100.00;96353.34;5073694;28;20846;-64
2023/05/15 10:02:06;;;;;;;3.40;3.20;;;;;;;15.34;100.00;96357.31;5069253;27;20225;-64
2023/05/15 10:04:36;;;;;;;4.50;4.20;;;;;;;15.39;100.00;96337.94;5024278;27;20360;-68
2023/05/15 10:07:07;;;;;;;4.47;4.27;;;;;;;15.77;100.00;96339.22;5076823;27;20205;-66
2023/05/15 10:09:35;;;;;;;4.47;4.20;;;;;;;16.05;100.00;96333.09;5053883;28;20563;-67
2023/05/15 10:12:03;;;;;;;4.20;3.97;;;;;;;15.64;100.00;96313.59;5071361;28;20202;-66
2023/05/15 10:14:32;;;;;;;4.97;3.63;;;;;;;15.55;100.00;96337.19;5074109;28;20202;-66
2023/05/15 10:17:00;;;;;;;3.13;3.03;;;;;;;15.27;100.00;96332.63;5075833;27;20205;-65
2023/05/15 10:19:28;;;;;;;4.13;3.90;;;;;;;15.38;100.00;96339.00;5026510;27;20220;-67
2023/05/15 10:21:57;;;;;;;4.50;4.30;;;;;;;15.30;100.00;96335.63;5070547;27;20799;-65
2023/05/15 10:24:25;;;;;;;4.73;4.53;;;;;;;15.26;100.00;96347.00;5049147;27;20213;-65
2023/05/15 10:26:55;;;;;;;4.73;4.43;;;;;;;15.17;100.00;96344.72;5074266;27;20501;-64
2023/05/15 10:29:25;;;;;;;5.10;4.73;;;;;;;15.41;100.00;96341.97;5074646;28;20396;-65
2023/05/15 10:31:54;;;;;;;5.27;5.00;;;;;;;15.59;100.00;96341.00;5073064;28;20228;-65
2023/05/15 10:34:22;;;;;;;4.87;4.57;;;;;;;15.83;100.00;96329.44;5018521;28;20349;-66
2023/05/15 10:36:50;;;;;;;4.70;4.40;;;;;;;16.34;100.00;96303.66;5075776;28;20672;-68
2023/05/15 10:39:18;;;;;;;4.30;4.00;;;;;;;17.39;100.00;96316.66;5071446;27;20518;-66
2023/05/15 10:41:46;;;;;;;5.90;5.50;;;;;;;17.83;100.00;96318.50;5053711;27;20495;-67
2023/05/15 10:44:14;;;;;;;4.70;4.03;;;;;;;17.92;100.00;96311.63;5069154;28;20971;-67
2023/05/15 10:46:42;;;;;;;3.97;3.77;;;;;;;18.28;100.00;96305.78;5072956;28;20676;-65
2023/05/15 10:49:11;;;;;;;5.13;4.83;;;;;;;18.20;100.00;96307.88;5069360;27;20577;-67
2023/05/15 10:51:39;;;;;;;4.47;4.20;;;;;;;17.99;100.00;96311.41;5023563;28;20701;-67
2023/05/15 10:54:08;;;;;;;5.07;4.77;;;;;;;17.65;100.00;96315.06;5070686;28;20460;-66
2023/05/15 10:56:38;;;;;;;5.23;4.93;;;;;;;17.35;100.00;96310.97;5055432;28;20208;-69
2023/05/15 10:59:08;;;;;;;5.43;5.00;;;;;;;17.23;100.00;96304.94;5074545;28;21002;-65
2023/05/15 11:01:36;;;;;;;5.33;4.93;;;;;;;16.91;100.00;96304.50;5067462;28;20225;-64
2023/05/15 11:04:06;;;;;;;5.43;5.10;;;;;;;16.62;100.00;96295.78;5072961;28;20223;-67
2023/05/15 11:06:36;;;;;;;6.80;5.53;;;;;;;16.58;100.00;96298.13;5022871;28;20251;-64
2023/05/15 11:09:35;;;;;;;6.17;5.77;;;;;;;16.92;100.00;96292.72;5070590;28;20739;-64
2023/05/15 11:12:04;;;;;;;6.13;5.73;;;;;;;17.11;100.00;96287.13;5056861;28;20300;-64
2023/05/15 11:14:32;;;;;;;5.10;4.70;;;;;;;17.30;100.00;96281.47;5077826;28;21014;-67
2023/05/15 11:17:02;;;;;;;5.20;4.73;;;;;;;17.60;100.00;96272.97;5075046;27;20489;-65
2023/05/15 11:19:38;;;;;;;4.97;4.67;;;;;;;17.41;100.00;96269.00;5078047;27;20197;-66
2023/05/15 11:22:18;;;;;;;5.10;4.80;;;;;;;17.70;100.00;96247.38;5014531;27;20217;-65
2023/05/15 11:24:54;;;;;;;5.27;4.90;;;;;;;18.15;100.00;96248.88;5075502;28;20677;-67
2023/05/15 11:27:23;;;;;;;5.13;4.73;;;;;;;18.46;100.00;96275.09;5051375;27;20706;-66
2023/05/15 11:30:08;;;;;;;4.63;4.40;;;;;;;18.57;100.00;96257.22;5072943;28;20214;-66
2023/05/15 11:32:49;;;;;;;3.67;3.47;;;;;;;18.40;100.00;96268.09;5078827;27;20197;-67
2023/05/15 11:35:21;;;;;;;4.40;4.20;;;;;;;18.88;100.00;96274.31;5074980;27;21034;-68
2023/05/15 11:37:52;;;;;;;3.83;3.63;;;;;;;19.50;100.00;96271.94;5019365;27;20212;-65